Time;durP1;ratioP1;P1;durP2;ratioP2;P2;SDS_P1;SDS_P2;PMS_P1;PMS_P2;Temp;Humidity;BMP_temperature;BMP_pressure;BME280_temperature;BME280_humidity;BME280_pressure;Samples;Min_cycle;Max_cycle;Signal;HPM_P1;HPM_P2
2021/06/27 00:00:26;;;;;;;12.65;9.93;;;18.00;86.60;;;;;;5090178;28;20019;-67
2021/06/27 00:02:51;;;;;;;15.55;10.48;;;18.00;86.70;;;;;;5089842;28;20030;-67
2021/06/27 00:05:20;;;;;;;11.50;8.70;;;18.00;86.70;;;;;;5071323;28;20111;-67
2021/06/27 00:07:46;;;;;;;13.05;10.02;;;18.00;86.80;;;;;;5090369;28;20028;-67
2021/06/27 00:10:15;;;;;;;11.85;8.27;;;17.90;86.80;;;;;;5072334;28;20490;-67
2021/06/27 00:12:42;;;;;;;11.63;9.20;;;17.90;87.10;;;;;;5084268;28;20087;-67
2021/06/27 00:15:13;;;;;;;14.60;9.10;;;17.90;87.00;;;;;;5080055;28;20024;-67
2021/06/27 00:17:39;;;;;;;12.82;9.75;;;17.90;87.20;;;;;;5083514;28;20041;-67
2021/06/27 00:20:09;;;;;;;10.23;8.60;;;17.90;87.10;;;;;;5090762;28;20070;-67
2021/06/27 00:22:34;;;;;;;12.52;9.35;;;17.90;87.40;;;;;;5089737;28;20016;-67
2021/06/27 00:25:00;;;;;;;16.17;9.90;;;17.90;87.40;;;;;;5088916;28;20479;-67
2021/06/27 00:27:25;;;;;;;13.20;10.02;;;17.80;87.30;;;;;;5089684;28;20028;-67
2021/06/27 00:29:51;;;;;;;14.07;9.90;;;17.80;87.50;;;;;;5090025;28;20077;-67
2021/06/27 00:32:17;;;;;;;15.10;9.85;;;17.80;87.60;;;;;;5089769;28;20404;-67
2021/06/27 00:34:42;;;;;;;16.27;9.90;;;17.80;87.60;;;;;;5089162;28;20024;-67
2021/06/27 00:37:09;;;;;;;11.88;9.32;;;17.80;87.60;;;;;;5089615;28;20032;-67
2021/06/27 00:39:35;;;;;;;15.30;9.93;;;17.70;87.50;;;;;;5069578;28;20101;-67
2021/06/27 00:42:01;;;;;;;14.38;9.75;;;17.70;87.70;;;;;;5073233;28;20032;-67
2021/06/27 00:44:27;;;;;;;14.27;9.73;;;17.70;87.70;;;;;;5096071;28;21573;-67
2021/06/27 00:46:53;;;;;;;12.15;8.88;;;17.60;87.70;;;;;;5070211;28;20380;-67
2021/06/27 00:49:20;;;;;;;13.13;9.98;;;17.60;87.80;;;;;;5089774;28;20024;-67
2021/06/27 00:51:46;;;;;;;12.10;9.82;;;17.60;87.90;;;;;;5090161;28;20026;-67
2021/06/27 00:54:12;;;;;;;14.10;9.52;;;17.60;87.80;;;;;;5089883;28;20031;-67
2021/06/27 00:56:37;;;;;;;11.48;9.57;;;17.60;87.90;;;;;;5088908;28;20016;-67
2021/06/27 00:59:03;;;;;;;16.05;9.82;;;17.50;88.00;;;;;;5088527;28;20421;-67
2021/06/27 01:01:28;;;;;;;16.17;10.18;;;17.50;88.00;;;;;;5089561;28;20073;-67
2021/06/27 01:03:54;;;;;;;17.30;10.20;;;17.50;88.00;;;;;;5070513;28;20107;-67
2021/06/27 01:06:20;;;;;;;14.60;10.43;;;17.40;88.10;;;;;;5088822;28;20036;-67
2021/06/27 01:08:45;;;;;;;11.40;9.15;;;17.40;88.20;;;;;;5086229;28;20444;-67
2021/06/27 01:11:11;;;;;;;15.52;10.57;;;17.30;88.30;;;;;;5089496;28;20458;-67
2021/06/27 01:13:36;;;;;;;11.80;9.68;;;17.30;88.40;;;;;;5082129;28;20028;-67
2021/06/27 01:16:03;;;;;;;18.60;10.85;;;17.30;88.50;;;;;;5084711;28;20235;-67
2021/06/27 01:18:28;;;;;;;16.80;10.18;;;17.30;88.60;;;;;;5089376;28;20025;-67
2021/06/27 01:20:54;;;;;;;16.52;10.43;;;17.30;88.60;;;;;;5087347;28;20092;-67
2021/06/27 01:23:20;;;;;;;13.85;10.77;;;17.30;88.50;;;;;;5089603;28;20392;-67
2021/06/27 01:25:50;;;;;;;14.95;11.20;;;17.20;88.60;;;;;;5088677;28;20126;-67
2021/06/27 01:28:16;;;;;;;13.65;10.20;;;17.20;88.80;;;;;;5088846;28;20023;-67
2021/06/27 01:30:42;;;;;;;13.50;9.63;;;17.10;88.80;;;;;;5089184;28;20115;-67
2021/06/27 01:33:15;;;;;;;14.07;10.50;;;17.10;88.90;;;;;;5088272;28;20026;-67
2021/06/27 01:35:42;;;;;;;13.50;9.90;;;17.10;89.10;;;;;;5088540;28;20024;-67
2021/06/27 01:38:08;;;;;;;15.68;9.57;;;17.10;89.00;;;;;;5089293;28;20056;-67
2021/06/27 01:40:34;;;;;;;12.82;9.32;;;17.10;89.10;;;;;;5088952;28;20043;-67
2021/06/27 01:43:21;;;;;;;11.80;8.48;;;17.10;89.00;;;;;;5089301;28;20648;-67
2021/06/27 01:45:55;;;;;;;14.00;9.23;;;17.10;89.10;;;;;;5088014;28;20035;-67
2021/06/27 01:48:21;;;;;;;12.10;9.48;;;17.10;89.10;;;;;;5088090;28;20024;-67
2021/06/27 01:50:49;;;;;;;13.20;9.77;;;17.10;89.00;;;;;;5092260;28;20020;-67
2021/06/27 01:53:17;;;;;;;13.25;9.30;;;17.00;89.00;;;;;;5074983;28;20112;-67
2021/06/27 01:55:43;;;;;;;12.80;9.43;;;17.00;88.90;;;;;;5073643;28;20031;-67
2021/06/27 01:58:09;;;;;;;13.55;9.77;;;17.00;88.90;;;;;;5092525;28;20028;-67
2021/06/27 02:00:36;;;;;;;12.95;8.93;;;16.90;88.90;;;;;;5092477;28;20028;-67
2021/06/27 02:03:03;;;;;;;14.00;10.07;;;16.90;89.00;;;;;;5092856;28;20369;-67
2021/06/27 02:05:30;;;;;;;13.27;9.32;;;16.90;89.10;;;;;;5087316;28;20101;-67
2021/06/27 02:07:58;;;;;;;13.10;8.52;;;16.80;89.20;;;;;;5093047;28;20368;-67
2021/06/27 02:10:26;;;;;;;13.00;9.13;;;16.80;89.30;;;;;;5093094;28;20047;-67
2021/06/27 02:12:52;;;;;;;12.13;8.95;;;16.80;89.40;;;;;;5091779;28;20027;-67
2021/06/27 02:15:19;;;;;;;11.95;9.60;;;16.80;89.30;;;;;;5088147;28;20359;-67
2021/06/27 02:18:16;;;;;;;12.30;9.55;;;16.80;89.40;;;;;;5091710;28;20016;-67
2021/06/27 02:20:41;;;;;;;15.73;9.45;;;16.70;89.70;;;;;;5081564;28;20043;-67
2021/06/27 02:23:07;;;;;;;14.50;9.80;;;16.70;89.50;;;;;;5070492;28;20020;-67
2021/06/27 02:25:33;;;;;;;13.98;9.43;;;16.60;89.60;;;;;;5073282;28;20024;-67
2021/06/27 02:27:58;;;;;;;12.52;9.13;;;16.60;89.70;;;;;;5092152;28;20089;-67
2021/06/27 02:30:24;;;;;;;12.20;9.15;;;16.60;89.70;;;;;;5074950;28;20024;-67
2021/06/27 02:32:50;;;;;;;11.77;9.02;;;16.50;89.70;;;;;;5092047;28;20060;-67
2021/06/27 02:35:16;;;;;;;12.38;9.68;;;16.50;89.70;;;;;;5091772;28;20017;-67
2021/06/27 02:37:42;;;;;;;14.05;9.35;;;16.50;89.70;;;;;;5091929;28;20039;-67
2021/06/27 02:40:10;;;;;;;11.65;8.82;;;16.50;89.80;;;;;;5091566;28;20028;-67
2021/06/27 02:42:35;;;;;;;15.35;9.48;;;16.40;89.70;;;;;;5091580;28;20794;-67
2021/06/27 02:45:02;;;;;;;12.88;9.45;;;16.40;89.90;;;;;;5086742;28;20028;-67
2021/06/27 02:47:28;;;;;;;12.95;9.38;;;16.40;89.90;;;;;;5090827;28;20024;-67
2021/06/27 02:49:54;;;;;;;12.95;9.85;;;16.40;90.20;;;;;;5092453;28;20031;-67
2021/06/27 02:52:19;;;;;;;15.15;8.75;;;16.40;90.00;;;;;;5091512;28;20024;-67
2021/06/27 02:54:45;;;;;;;14.30;9.25;;;16.40;90.00;;;;;;5090051;28;20097;-67
2021/06/27 02:57:10;;;;;;;12.68;8.68;;;16.30;90.00;;;;;;5071419;28;20028;-67
2021/06/27 02:59:36;;;;;;;13.45;9.30;;;16.30;90.10;;;;;;5091471;28;20023;-67
2021/06/27 03:02:01;;;;;;;16.33;10.02;;;16.30;90.10;;;;;;5091513;28;20096;-67
2021/06/27 03:04:27;;;;;;;14.05;10.02;;;16.30;90.10;;;;;;5091821;28;20032;-67
2021/06/27 03:06:53;;;;;;;11.85;9.23;;;16.30;90.10;;;;;;5090995;28;20024;-67
2021/06/27 03:09:18;;;;;;;16.05;9.93;;;16.30;90.10;;;;;;5091747;28;20028;-67
2021/06/27 03:11:44;;;;;;;12.35;9.13;;;16.20;90.10;;;;;;5090314;28;20064;-67
2021/06/27 03:14:10;;;;;;;12.95;9.73;;;16.10;90.20;;;;;;5073836;28;20158;-67
2021/06/27 03:16:35;;;;;;;12.80;9.63;;;16.10;90.30;;;;;;5089027;28;20495;-67
2021/06/27 03:19:01;;;;;;;13.68;8.90;;;16.00;90.30;;;;;;5073438;28;20051;-67
2021/06/27 03:21:27;;;;;;;14.48;9.88;;;16.00;90.40;;;;;;5089838;28;20064;-67
2021/06/27 03:23:52;;;;;;;12.57;8.88;;;15.90;90.50;;;;;;5091290;28;20048;-67
2021/06/27 03:26:18;;;;;;;13.68;9.13;;;15.90;90.50;;;;;;5089555;28;20028;-67
2021/06/27 03:28:46;;;;;;;11.95;9.70;;;15.80;90.60;;;;;;5091492;28;20028;-67
2021/06/27 03:31:12;;;;;;;12.95;9.00;;;15.80;90.70;;;;;;5090934;28;20028;-66
2021/06/27 03:33:37;;;;;;;11.82;9.45;;;15.80;90.80;;;;;;5091286;28;21711;-66
2021/06/27 03:36:04;;;;;;;10.25;8.23;;;15.80;90.90;;;;;;5090431;28;20028;-66
2021/06/27 03:38:39;;;;;;;15.82;9.13;;;15.90;91.00;;;;;;5090544;28;20027;-66
2021/06/27 03:41:04;;;;;;;10.40;8.50;;;16.00;91.10;;;;;;5091630;28;20115;-66
2021/06/27 03:43:30;;;;;;;10.35;8.32;;;16.00;91.30;;;;;;5072396;28;20571;-66
2021/06/27 03:45:56;;;;;;;13.10;9.13;;;16.10;91.00;;;;;;5090428;28;20099;-67
2021/06/27 03:48:21;;;;;;;12.02;8.50;;;16.10;91.00;;;;;;5089317;28;20036;-67
2021/06/27 03:50:47;;;;;;;13.73;9.48;;;16.10;91.00;;;;;;5072754;28;20088;-67
2021/06/27 03:53:13;;;;;;;13.95;8.80;;;16.10;91.00;;;;;;5090948;28;20093;-68
2021/06/27 03:55:38;;;;;;;13.60;8.57;;;16.10;90.90;;;;;;5090314;28;20031;-68
2021/06/27 03:58:04;;;;;;;11.10;8.63;;;16.10;90.90;;;;;;5089816;28;20030;-68
2021/06/27 04:00:37;;;;;;;10.50;8.07;;;16.10;90.90;;;;;;5091022;28;20023;-68
2021/06/27 04:03:03;;;;;;;11.90;8.85;;;16.10;91.00;;;;;;5087299;28;20107;-68
2021/06/27 04:05:28;;;;;;;18.33;8.55;;;16.10;91.00;;;;;;5088415;28;20162;-68
2021/06/27 04:07:54;;;;;;;11.25;8.35;;;16.00;91.10;;;;;;5090386;28;20173;-68
2021/06/27 04:10:20;;;;;;;12.18;8.90;;;16.00;91.10;;;;;;5090656;28;20124;-68
2021/06/27 04:12:45;;;;;;;12.38;8.80;;;16.10;91.10;;;;;;5066225;28;20016;-68
2021/06/27 04:15:11;;;;;;;13.90;8.95;;;16.10;91.20;;;;;;5083056;28;20062;-68
2021/06/27 04:17:37;;;;;;;12.38;9.18;;;16.10;91.20;;;;;;5089703;28;20020;-68
2021/06/27 04:20:06;;;;;;;16.02;9.88;;;16.10;91.20;;;;;;5090633;28;20069;-67
2021/06/27 04:22:32;;;;;;;13.80;9.55;;;16.00;91.20;;;;;;5088791;28;20023;-67
2021/06/27 04:24:57;;;;;;;12.52;9.57;;;16.10;91.20;;;;;;5087066;28;20027;-67
2021/06/27 04:27:23;;;;;;;12.35;9.52;;;16.00;91.20;;;;;;5090031;28;20032;-67
2021/06/27 04:29:48;;;;;;;13.52;9.35;;;16.00;91.40;;;;;;5090060;28;20034;-67
2021/06/27 04:32:14;;;;;;;12.55;9.30;;;15.90;91.20;;;;;;5089808;28;20617;-66
2021/06/27 04:34:40;;;;;;;14.30;9.85;;;15.90;91.10;;;;;;5089752;28;20031;-67
2021/06/27 04:37:05;;;;;;;14.88;9.50;;;15.90;91.20;;;;;;5089564;28;20650;-67
2021/06/27 04:39:31;;;;;;;14.52;9.80;;;15.80;91.30;;;;;;5081949;28;20533;-66
2021/06/27 04:41:56;;;;;;;11.35;9.05;;;15.90;91.40;;;;;;5098610;22;20091;-68
2021/06/27 04:44:22;;;;;;;15.10;9.52;;;15.90;91.40;;;;;;5082027;28;20028;-68
2021/06/27 04:46:48;;;;;;;13.63;8.93;;;16.00;91.50;;;;;;5075305;28;20103;-69
2021/06/27 04:49:13;;;;;;;11.95;8.57;;;16.10;91.60;;;;;;5086499;28;20456;-69
2021/06/27 04:51:40;;;;;;;11.70;8.85;;;16.10;91.60;;;;;;5092473;28;20036;-68
2021/06/27 04:54:06;;;;;;;13.07;9.43;;;16.20;91.60;;;;;;5095749;28;20020;-69
2021/06/27 04:56:32;;;;;;;11.05;8.55;;;16.30;91.60;;;;;;5092703;28;20459;-68
2021/06/27 04:58:57;;;;;;;10.85;8.75;;;16.40;91.60;;;;;;5096672;28;20107;-69
2021/06/27 05:01:23;;;;;;;11.18;8.90;;;16.40;91.60;;;;;;5097263;28;20395;-68
2021/06/27 05:03:48;;;;;;;9.68;8.38;;;16.50;91.60;;;;;;5089691;28;20028;-69
2021/06/27 05:06:14;;;;;;;10.60;8.40;;;16.60;91.60;;;;;;5097561;28;20479;-69
2021/06/27 05:08:39;;;;;;;13.52;8.82;;;16.70;91.60;;;;;;5098636;28;20030;-69
2021/06/27 05:11:05;;;;;;;11.80;8.40;;;16.70;91.50;;;;;;5097725;28;20054;-68
2021/06/27 05:13:31;;;;;;;10.15;8.18;;;16.80;91.50;;;;;;5078171;28;20021;-68
2021/06/27 05:15:57;;;;;;;10.40;8.38;;;16.90;91.50;;;;;;5075268;28;20047;-68
2021/06/27 05:18:23;;;;;;;13.05;8.18;;;17.00;91.50;;;;;;5089094;28;20102;-68
2021/06/27 05:20:49;;;;;;;14.45;8.45;;;17.00;91.50;;;;;;5078306;28;20028;-69
2021/06/27 05:23:16;;;;;;;10.15;8.07;;;17.10;91.50;;;;;;5096472;28;20036;-68
2021/06/27 05:25:41;;;;;;;9.93;8.23;;;17.20;91.60;;;;;;5098663;28;20024;-67
2021/06/27 05:28:07;;;;;;;10.52;8.35;;;17.20;91.50;;;;;;5099979;28;20038;-69
2021/06/27 05:30:33;;;;;;;12.32;9.05;;;17.20;91.40;;;;;;5100982;28;20063;-68
2021/06/27 05:33:00;;;;;;;10.32;8.27;;;17.20;91.50;;;;;;5099947;28;20107;-69
2021/06/27 05:35:26;;;;;;;11.07;8.18;;;17.30;91.60;;;;;;5099663;28;20115;-68
2021/06/27 05:37:51;;;;;;;10.98;7.68;;;17.30;91.50;;;;;;5100888;28;20028;-66
2021/06/27 05:40:17;;;;;;;9.50;7.75;;;17.30;91.50;;;;;;5082336;28;20096;-68
2021/06/27 05:42:43;;;;;;;12.35;8.40;;;17.40;91.60;;;;;;5077610;28;20048;-68
2021/06/27 05:45:09;;;;;;;10.02;7.82;;;17.50;91.60;;;;;;5100757;28;20464;-68
2021/06/27 05:47:34;;;;;;;9.93;7.75;;;17.70;91.60;;;;;;5080853;28;20035;-68
2021/06/27 05:50:00;;;;;;;12.45;8.10;;;17.80;91.50;;;;;;5102407;28;20491;-67
2021/06/27 05:52:25;;;;;;;11.75;8.20;;;17.90;91.80;;;;;;5102430;28;20062;-68
2021/06/27 05:54:51;;;;;;;11.50;8.13;;;18.10;91.50;;;;;;5101154;28;20024;-68
2021/06/27 05:57:17;;;;;;;9.80;8.27;;;18.20;91.40;;;;;;5081197;28;20024;-68
2021/06/27 05:59:43;;;;;;;10.90;8.20;;;18.30;91.20;;;;;;5096863;28;20024;-68
2021/06/27 06:02:09;;;;;;;9.23;7.78;;;18.40;91.10;;;;;;5100600;28;20518;-68
2021/06/27 06:04:34;;;;;;;12.48;7.72;;;18.50;90.90;;;;;;5101303;28;20028;-66
2021/06/27 06:07:00;;;;;;;9.02;7.88;;;18.70;90.80;;;;;;5102426;28;20798;-69
2021/06/27 06:09:25;;;;;;;9.75;7.60;;;18.80;90.60;;;;;;5083452;28;20115;-68
2021/06/27 06:11:51;;;;;;;10.70;7.68;;;19.00;90.50;;;;;;5099976;28;20032;-68
2021/06/27 06:14:17;;;;;;;8.27;7.05;;;19.10;90.30;;;;;;5098424;28;20027;-68
2021/06/27 06:16:46;;;;;;;9.38;8.00;;;19.20;90.20;;;;;;5085050;28;20020;-68
2021/06/27 06:19:13;;;;;;;8.18;7.35;;;19.30;90.10;;;;;;5099349;28;20162;-68
2021/06/27 06:21:39;;;;;;;8.25;7.15;;;19.40;90.00;;;;;;5081389;28;20028;-66
2021/06/27 06:24:05;;;;;;;8.55;7.47;;;19.50;89.90;;;;;;5100916;28;20050;-69
2021/06/27 06:26:30;;;;;;;8.63;7.50;;;19.60;89.60;;;;;;5095120;28;20147;-69
2021/06/27 06:28:56;;;;;;;7.90;7.10;;;19.70;89.40;;;;;;5079179;28;20115;-69
2021/06/27 06:31:21;;;;;;;8.85;7.38;;;19.80;89.20;;;;;;5084629;28;20048;-68
2021/06/27 06:33:47;;;;;;;9.38;7.78;;;20.00;89.20;;;;;;5102110;28;20024;-67
2021/06/27 06:36:13;;;;;;;8.65;7.40;;;20.10;88.90;;;;;;5098000;28;20073;-68
2021/06/27 06:38:38;;;;;;;8.30;6.55;;;20.30;88.80;;;;;;5097879;28;20024;-68
2021/06/27 06:41:04;;;;;;;8.65;6.70;;;20.50;88.50;;;;;;5088205;28;20434;-72
2021/06/27 06:43:29;;;;;;;7.28;6.50;;;20.70;88.00;;;;;;5086824;28;20058;-72
2021/06/27 06:45:56;;;;;;;7.90;6.57;;;20.90;87.40;;;;;;5090235;28;20035;-71
2021/06/27 06:48:21;;;;;;;9.20;6.90;;;21.10;86.90;;;;;;5091028;28;20035;-69
2021/06/27 06:50:47;;;;;;;9.10;6.65;;;21.30;86.80;;;;;;5088477;28;20103;-69
2021/06/27 06:53:12;;;;;;;7.88;6.38;;;21.40;86.40;;;;;;5090496;28;20111;-69
2021/06/27 06:55:38;;;;;;;6.75;5.82;;;21.60;86.10;;;;;;5086264;28;20024;-69
2021/06/27 06:58:04;;;;;;;7.05;5.72;;;21.80;85.90;;;;;;5091183;28;20040;-69
2021/06/27 07:00:30;;;;;;;8.50;5.40;;;22.00;85.50;;;;;;5079054;28;20026;-69
2021/06/27 07:02:56;;;;;;;7.43;5.25;;;22.20;84.80;;;;;;5091055;28;20095;-69
2021/06/27 07:05:21;;;;;;;7.15;5.65;;;22.30;84.30;;;;;;5072070;28;20110;-69
2021/06/27 07:07:47;;;;;;;6.97;5.82;;;22.30;84.20;;;;;;5091288;28;20035;-69
2021/06/27 07:10:14;;;;;;;7.00;5.85;;;22.30;84.00;;;;;;5092235;28;20027;-69
2021/06/27 07:12:39;;;;;;;5.97;5.45;;;22.40;83.70;;;;;;5087530;28;20515;-69
2021/06/27 07:15:06;;;;;;;6.90;5.53;;;22.50;83.90;;;;;;5085782;28;20025;-69
2021/06/27 07:17:31;;;;;;;6.85;5.00;;;22.70;83.70;;;;;;5090726;28;20027;-69
2021/06/27 07:19:57;;;;;;;5.78;5.28;;;22.90;83.30;;;;;;5083396;28;20104;-69
2021/06/27 07:22:23;;;;;;;6.53;4.95;;;23.20;83.10;;;;;;5090852;28;20055;-69
2021/06/27 07:24:49;;;;;;;6.18;4.60;;;23.50;82.70;;;;;;5090821;28;20435;-69
2021/06/27 07:27:14;;;;;;;5.07;4.57;;;23.60;82.10;;;;;;5083819;28;20119;-69
2021/06/27 07:29:40;;;;;;;4.72;4.32;;;23.80;81.70;;;;;;5081082;28;20715;-69
2021/06/27 07:32:06;;;;;;;5.60;4.75;;;24.00;81.00;;;;;;5090290;28;20063;-69
2021/06/27 07:34:32;;;;;;;5.47;4.97;;;24.20;80.10;;;;;;5091148;28;20052;-69
2021/06/27 07:36:58;;;;;;;4.75;4.22;;;24.20;79.80;;;;;;5090345;28;20024;-69
2021/06/27 07:39:23;;;;;;;5.20;4.63;;;24.40;79.30;;;;;;5089839;28;20016;-69
2021/06/27 07:41:49;;;;;;;5.78;4.75;;;24.50;78.90;;;;;;5086410;28;20032;-69
2021/06/27 07:44:15;;;;;;;6.20;4.80;;;24.80;78.60;;;;;;5077811;28;20081;-70
2021/06/27 07:46:40;;;;;;;4.65;4.25;;;25.10;77.80;;;;;;5088948;28;20598;-70
2021/06/27 07:49:06;;;;;;;6.43;4.70;;;25.30;77.20;;;;;;5090795;28;20050;-70
2021/06/27 07:51:32;;;;;;;5.45;4.15;;;25.60;77.00;;;;;;5073827;28;20020;-70
2021/06/27 07:53:58;;;;;;;4.68;4.28;;;25.90;77.00;;;;;;5091434;28;20397;-72
2021/06/27 07:56:24;;;;;;;4.35;3.95;;;26.10;75.00;;;;;;5090501;28;20106;-73
2021/06/27 07:58:49;;;;;;;4.50;4.10;;;26.30;74.20;;;;;;5091037;28;20488;-74
2021/06/27 08:01:15;;;;;;;4.80;4.30;;;26.30;74.10;;;;;;5084601;28;20130;-73
2021/06/27 08:03:40;;;;;;;4.20;3.80;;;26.30;73.70;;;;;;5071545;28;20030;-73
2021/06/27 08:06:06;;;;;;;4.07;3.78;;;26.40;73.30;;;;;;5090049;28;20111;-73
2021/06/27 08:08:32;;;;;;;4.20;3.80;;;26.40;73.00;;;;;;5073268;28;20035;-74
2021/06/27 08:10:57;;;;;;;3.95;3.65;;;26.50;72.60;;;;;;5091411;28;20031;-72
2021/06/27 08:13:23;;;;;;;4.68;3.72;;;26.40;72.60;;;;;;5082493;28;20016;-72
2021/06/27 08:15:48;;;;;;;4.05;3.65;;;26.60;72.40;;;;;;5081599;28;20049;-73
2021/06/27 08:18:14;;;;;;;5.13;3.75;;;26.60;72.30;;;;;;5089429;28;20506;-73
2021/06/27 08:20:40;;;;;;;3.72;3.38;;;26.60;72.00;;;;;;5082831;28;20016;-72
2021/06/27 08:23:05;;;;;;;3.65;3.42;;;26.70;71.70;;;;;;5072628;28;20564;-73
2021/06/27 08:25:31;;;;;;;3.40;3.10;;;26.80;71.40;;;;;;5083974;28;20032;-72
2021/06/27 08:27:57;;;;;;;4.75;3.22;;;27.10;70.80;;;;;;5087947;28;20028;-72
2021/06/27 08:30:23;;;;;;;3.60;3.30;;;27.50;70.00;;;;;;5087763;28;20063;-75
2021/06/27 08:32:49;;;;;;;4.43;3.05;;;27.80;68.90;;;;;;5073628;28;21870;-75
2021/06/27 08:35:20;;;;;;;2.88;2.67;;;28.20;68.30;;;;;;5090043;28;20549;-75
2021/06/27 08:37:47;;;;;;;3.72;2.67;;;28.60;67.00;;;;;;5090969;28;20022;-73
2021/06/27 08:40:14;;;;;;;2.80;2.60;;;29.00;65.80;;;;;;5090045;28;20022;-75
2021/06/27 08:42:41;;;;;;;2.88;2.67;;;29.20;64.10;;;;;;5089669;28;20065;-73
2021/06/27 08:45:09;;;;;;;2.20;2.00;;;29.60;63.10;;;;;;5087930;28;20373;-75
2021/06/27 08:47:36;;;;;;;2.95;2.30;;;30.00;61.80;;;;;;5080613;28;20465;-74
2021/06/27 08:50:03;;;;;;;2.30;2.10;;;30.40;60.10;;;;;;5087371;28;20056;-73
2021/06/27 08:52:31;;;;;;;2.65;2.10;;;30.80;58.60;;;;;;5087541;28;20032;-73
2021/06/27 08:54:56;;;;;;;3.13;2.10;;;31.30;57.20;;;;;;5064365;28;20046;-74
2021/06/27 08:57:22;;;;;;;2.80;2.30;;;31.60;57.30;;;;;;5089914;28;20368;-73
2021/06/27 08:59:47;;;;;;;2.25;2.05;;;32.00;56.10;;;;;;5090503;28;20373;-73
2021/06/27 09:02:14;;;;;;;2.25;2.15;;;32.30;55.20;;;;;;5087956;28;20115;-73
2021/06/27 09:04:41;;;;;;;3.03;2.75;;;32.30;54.70;;;;;;5088483;28;20032;-73
2021/06/27 09:07:30;;;;;;;5.13;4.55;;;32.10;55.00;;;;;;5090081;28;20081;-74
2021/06/27 09:10:16;;;;;;;3.72;3.40;;;31.70;55.00;;;;;;5091921;28;20124;-72
2021/06/27 09:12:46;;;;;;;7.28;5.72;;;31.00;56.00;;;;;;5062452;28;20504;-73
2021/06/27 09:15:12;;;;;;;5.25;4.60;;;31.20;54.80;;;;;;5087124;28;20059;-74
2021/06/27 09:17:42;;;;;;;2.67;2.47;;;32.00;53.00;;;;;;5089403;28;20024;-73
2021/06/27 09:20:10;;;;;;;3.63;3.30;;;32.70;50.00;;;;;;5083170;28;20020;-73
2021/06/27 09:22:49;;;;;;;2.97;2.65;;;33.10;49.50;;;;;;5081336;28;20028;-74
2021/06/27 09:25:25;;;;;;;2.83;2.30;;;33.30;48.90;;;;;;5088238;28;20103;-74
2021/06/27 09:28:09;;;;;;;2.10;1.90;;;33.70;48.90;;;;;;5093657;28;20402;-72
2021/06/27 09:30:55;;;;;;;1.90;1.80;;;34.20;48.40;;;;;;5088362;28;20020;-72
2021/06/27 09:33:30;;;;;;;1.65;1.55;;;34.80;47.30;;;;;;5070390;28;20026;-70
2021/06/27 09:36:00;;;;;;;1.70;1.60;;;35.10;46.30;;;;;;5080961;28;20035;-74
2021/06/27 09:38:37;;;;;;;1.80;1.70;;;35.00;45.70;;;;;;5088579;28;20372;-74
2021/06/27 09:41:23;;;;;;;1.83;1.73;;;34.80;46.40;;;;;;5080889;28;20141;-72
2021/06/27 09:44:05;;;;;;;1.73;1.60;;;35.10;46.20;;;;;;5079023;28;20020;-72
2021/06/27 09:46:42;;;;;;;2.33;1.50;;;35.40;45.40;;;;;;5084057;28;20028;-67
2021/06/27 09:49:29;;;;;;;1.80;1.70;;;35.60;44.60;;;;;;5084342;28;20213;-68
2021/06/27 09:51:58;;;;;;;1.77;1.60;;;35.80;44.50;;;;;;5076417;28;20024;-68
2021/06/27 09:54:25;;;;;;;1.60;1.50;;;36.00;44.50;;;;;;5089179;28;20024;-67
2021/06/27 09:56:53;;;;;;;2.47;2.00;;;36.00;44.00;;;;;;5070891;28;20024;-67
2021/06/27 09:59:34;;;;;;;1.92;1.60;;;35.90;43.70;;;;;;5072086;28;20491;-68
2021/06/27 10:02:00;;;;;;;4.95;3.90;;;35.70;44.20;;;;;;5088978;28;20039;-68
2021/06/27 10:04:31;;;;;;;2.15;2.05;;;35.40;44.60;;;;;;5090717;28;20028;-68
2021/06/27 10:06:59;;;;;;;4.78;4.25;;;35.10;44.90;;;;;;5089987;28;20384;-70
2021/06/27 10:09:29;;;;;;;3.97;1.60;;;34.50;45.70;;;;;;5090035;28;20032;-67
2021/06/27 10:12:03;;;;;;;2.15;1.45;;;34.50;45.60;;;;;;5093603;28;20495;-69
2021/06/27 10:14:49;;;;;;;1.70;1.60;;;34.20;45.70;;;;;;5093518;28;20054;-67
2021/06/27 10:17:16;;;;;;;5.53;2.70;;;33.90;46.70;;;;;;5085603;28;20060;-69
2021/06/27 10:19:43;;;;;;;4.15;3.75;;;33.80;46.10;;;;;;5093902;28;20078;-68
2021/06/27 10:22:09;;;;;;;2.15;1.67;;;33.60;45.40;;;;;;5093930;28;20020;-67
2021/06/27 10:24:34;;;;;;;6.80;3.20;;;33.20;45.40;;;;;;5092940;28;20043;-71
2021/06/27 10:27:00;;;;;;;1.63;1.52;;;32.90;46.30;;;;;;5070941;28;20037;-66
2021/06/27 10:29:26;;;;;;;1.35;1.30;;;32.80;46.40;;;;;;5093787;28;20028;-67
2021/06/27 10:31:54;;;;;;;1.83;1.45;;;32.60;46.90;;;;;;5078823;28;20025;-67
2021/06/27 10:34:21;;;;;;;1.60;1.50;;;32.50;46.10;;;;;;5070084;28;20054;-68
2021/06/27 10:36:54;;;;;;;2.67;1.40;;;32.40;46.30;;;;;;5074359;28;20027;-67
2021/06/27 10:39:21;;;;;;;1.50;1.40;;;32.20;45.50;;;;;;5093685;28;20480;-68
2021/06/27 10:41:54;;;;;;;2.08;1.60;;;32.00;46.00;;;;;;5097674;22;20131;-67
2021/06/27 10:44:25;;;;;;;1.70;1.60;;;31.80;45.80;;;;;;5071571;28;20048;-67
2021/06/27 10:46:57;;;;;;;1.58;1.50;;;31.60;46.60;;;;;;5053499;28;20017;-67
2021/06/27 10:49:35;;;;;;;2.25;1.92;;;31.60;47.10;;;;;;5054243;28;20028;-67
2021/06/27 10:52:09;;;;;;;2.08;1.90;;;31.60;47.70;;;;;;5066852;28;20066;-68
2021/06/27 10:54:39;;;;;;;1.23;1.20;;;31.60;46.80;;;;;;5071229;28;20029;-67
2021/06/27 10:57:16;;;;;;;1.85;1.75;;;31.40;46.40;;;;;;5072180;28;20484;-67
2021/06/27 10:59:44;;;;;;;1.60;1.50;;;31.20;46.40;;;;;;5072732;28;20056;-67
2021/06/27 11:02:30;;;;;;;1.80;1.70;;;31.00;47.30;;;;;;5053654;28;20038;-67
2021/06/27 11:05:16;;;;;;;1.48;1.42;;;30.90;47.80;;;;;;5071491;28;20090;-67
2021/06/27 11:07:44;;;;;;;1.52;1.42;;;30.90;48.20;;;;;;5072259;28;20031;-67
2021/06/27 11:10:19;;;;;;;2.35;1.48;;;30.80;48.50;;;;;;5082943;28;20028;-67
2021/06/27 11:13:00;;;;;;;3.20;1.65;;;30.80;48.00;;;;;;5077712;28;20031;-67
2021/06/27 11:15:33;;;;;;;1.80;1.70;;;30.50;47.30;;;;;;5071298;28;20444;-66
2021/06/27 11:18:02;;;;;;;2.45;1.65;;;30.30;47.30;;;;;;5054483;28;20085;-67
2021/06/27 11:20:34;;;;;;;3.00;1.85;;;30.20;48.50;;;;;;5054227;28;20488;-67
2021/06/27 11:23:00;;;;;;;3.50;1.80;;;30.10;48.60;;;;;;5072492;28;20116;-67
2021/06/27 11:25:46;;;;;;;1.58;1.50;;;30.00;48.50;;;;;;5070833;28;20099;-67
2021/06/27 11:28:18;;;;;;;2.22;1.70;;;30.00;48.10;;;;;;5071932;28;20031;-67
2021/06/27 11:30:50;;;;;;;1.65;1.55;;;29.90;48.60;;;;;;5072115;28;20376;-67
2021/06/27 11:33:16;;;;;;;1.63;1.40;;;29.90;48.10;;;;;;5075771;28;20081;-66
2021/06/27 11:35:49;;;;;;;1.50;1.40;;;29.80;48.80;;;;;;5080773;28;20376;-66
2021/06/27 11:38:38;;;;;;;1.77;1.67;;;29.70;48.50;;;;;;5053992;28;20020;-66
2021/06/27 11:41:11;;;;;;;2.25;1.58;;;29.50;48.20;;;;;;5090695;28;20024;-67
2021/06/27 11:44:00;;;;;;;2.67;1.60;;;29.40;48.60;;;;;;5071420;28;20028;-67
2021/06/27 11:46:45;;;;;;;1.50;1.25;;;29.40;49.50;;;;;;5068537;28;20476;-66
2021/06/27 11:49:13;;;;;;;1.27;1.27;;;29.40;48.80;;;;;;5059894;28;20054;-67
2021/06/27 11:51:51;;;;;;;1.70;1.15;;;29.40;48.00;;;;;;5071589;28;20034;-67
2021/06/27 11:54:24;;;;;;;1.95;1.85;;;29.40;48.00;;;;;;5073018;28;20082;-67
2021/06/27 11:57:06;;;;;;;2.25;2.05;;;29.40;48.30;;;;;;5070429;28;20025;-66
2021/06/27 11:59:38;;;;;;;1.60;1.50;;;29.40;48.00;;;;;;5071567;28;20025;-66
2021/06/27 12:02:17;;;;;;;1.60;1.50;;;29.30;47.60;;;;;;5071446;28;20876;-66
2021/06/27 12:04:51;;;;;;;1.98;1.88;;;29.30;47.80;;;;;;5070859;28;20016;-66
2021/06/27 12:07:36;;;;;;;1.80;1.70;;;29.30;48.40;;;;;;5053288;28;20496;-66
2021/06/27 12:10:17;;;;;;;2.03;1.70;;;29.30;49.20;;;;;;5054194;28;20043;-66
2021/06/27 12:13:05;;;;;;;1.80;1.70;;;29.30;49.00;;;;;;5070528;28;20024;-66
2021/06/27 12:15:37;;;;;;;3.80;1.80;;;29.30;49.70;;;;;;5085992;28;20117;-66
2021/06/27 12:18:02;;;;;;;;;;;29.30;50.00;;;;;;5051763;28;20029;-66
2021/06/27 12:20:37;;;;;;;6.78;5.35;;;29.30;50.70;;;;;;5070040;28;19923;-66
2021/06/27 12:23:12;;;;;;;3.60;3.30;;;29.20;49.70;;;;;;5071332;28;20468;-66
2021/06/27 12:25:52;;;;;;;1.83;1.73;;;29.10;49.00;;;;;;5070201;28;20035;-66
2021/06/27 12:28:39;;;;;;;2.10;1.98;;;29.00;48.90;;;;;;5058838;28;20031;-66
2021/06/27 12:31:18;;;;;;;2.42;2.08;;;29.10;50.00;;;;;;5066728;28;20032;-66
2021/06/27 12:33:46;;;;;;;2.22;1.98;;;29.10;49.40;;;;;;5070602;28;20020;-66
2021/06/27 12:36:15;;;;;;;2.88;1.70;;;29.20;49.40;;;;;;5069962;28;20025;-65
2021/06/27 12:38:48;;;;;;;1.67;1.50;;;29.20;49.10;;;;;;5071934;28;20053;-66
2021/06/27 12:41:19;;;;;;;2.17;1.92;;;29.10;50.00;;;;;;5077501;28;20028;-66
2021/06/27 12:43:50;;;;;;;2.00;1.90;;;29.20;50.00;;;;;;5070470;28;20028;-66
2021/06/27 12:46:16;;;;;;;1.58;1.52;;;29.20;50.00;;;;;;5052321;28;20436;-66
2021/06/27 12:48:44;;;;;;;1.90;1.80;;;29.20;49.60;;;;;;5070451;28;20104;-66